Aérodrome :
LOGIN :

S'inscrire | Disclaimer

   EN    FR    IT 

 










Légende :    VFR   VFR Marginal   IFR   IFR Intensif   IFR Très Intensif
Visi : 
Plafond : 
>= 8 km
>= 3000ft
5 à 8 km
1000 à 3000 ft
1500m à 5 km
500 à 1000 ft
800 à 1500m
200 à 500 ft
< 800m
< 200 ft
Symboles :   Orages  Brouillard  Fortes neiges  Fortes précipitations  Vent > 20 kt
SIGMETs :   Divers  Orages  Givrage  Turbulence  Onde Orograph.  Cendres Volcan.







- Altitude de l'aérodrome : 74 ft
- Code IATA : MRS
- Voir les cartes d'approche


LFML - Marseille / Marignane

DERNIER METAR :
  • 221430Z AUTO 32008KT 9999 NSC 08/M03 Q1005 NOSIG

METARs EXPIRÉS :
  • 221400Z AUTO 31010KT CAVOK 08/M02 Q1004 NOSIG
  • 221330Z AUTO 31007KT CAVOK 09/M02 Q1005 NOSIG
  • 221300Z AUTO 30006KT CAVOK 08/M03 Q1005 NOSIG
  • 221230Z AUTO 32004KT 280V350 CAVOK 08/M03 Q1005 NOSIG
  • 221200Z AUTO 30006KT 240V330 CAVOK 08/M02 Q1005 NOSIG
  • 221130Z AUTO 29006KT CAVOK 07/M03 Q1005 NOSIG

TAF TAF LFML
Valide du 22 à 15h jusqu'au 23 à 21h UTC


221400Z 2215/2321 32010KT CAVOK
PROB40
TEMPO 2300/2305 BKN027
BECMG 2313/2315 VRB03KT TX09/2314Z TNM00/2304Z
ATIS : +33 4 42 31 15 15
Pas de NOTAMs connus pour ce terrain.
1 SIGMET publié pour la FIR Marseille (LFMM) :
 
Turbulence forte
LFMM SIGMET 6 VALID 221100/221500 LFPW
LFMM MARSEILLE FIR/UIR SEV TURB FCST W OF LINE N4200 E00415 - N4345 E00245 SFC/FL050 STNR WKN=



MET'MAP, la Météo Aéronautique d'un coup d'oeil ! - Copyright ORBIFLY Décembre 2007 - Disclaimer

ORBIFLY MET'MAP TEAM :

Programmation & Développement : Alexandra Zaïnal
Conception & Développement : Baudouin d'Aumeries
Co-Programmation & Développement : Marc-Olivier Méhu
Soutien technique & logistique : Manuel Goepfert

Contact : metmap@orbifly.com




SOURCES & CREDITS :

   NOAA